Meteo Giornale » Osservazioni meteo Croazia » Rijeka-Omisalj

ore: 16:00 - Osservazioni Meteo Rijeka-Omisalj
Lat. 45° 13' N Lon. 14° 35' E Alt. 85 metri s.l.m.

sereno Europe/Zagreb

25 °C

Sereno

Temp. 24 Ore

19 °C

27 °C

Nord-Est

22.2 Km/h

Dew point 10 °C

Umidità 38 %

Visibilità  10 Km

Il sole sorge alle ore 06:43

Il sole tramonta alle ore 19:08

Data e Ora Cielo e Fenomeni T °C DP °C Um. % Pres. hPa Vis. km Vento km/h
Oggi h: 16:00 sereno Sereno 25 10 38 1020 10 NE 22.2
Oggi h: 15:30 sereno Sereno 23 9 40 1020 10 NE 22.2
Oggi h: 15:00 sereno Sereno 24 9 38 1020 10 NE 24
Oggi h: 13:30 sereno Sereno 25 9 36 1020 10 NE 24
Oggi h: 13:00 sereno Sereno 24 9 38 1020 10 N/NE 22.2
Oggi h: 12:30 sereno Sereno 24 9 38 1020 10 N/NE 18.5
Oggi h: 12:00 sereno Sereno 24 9 38 1020 10 NE 24
Oggi h: 11:30 sereno Sereno 24 9 38 1020 10 NE 24
Oggi h: 11:00 sereno Sereno 24 9 38 1020 10 N/NE 22.2
Oggi h: 10:30 poco_nuvoloso Poco Nuvoloso 24 11 43 1020 10 N 11.1
Oggi h: 10:00 poco_nuvoloso Poco Nuvoloso 23 10 43 1020 10 E/NE 18.5
Oggi h: 09:30 poco_nuvoloso Poco Nuvoloso 22 10 46 1020 10 NE 16.7
Oggi h: 09:00 poco_nuvoloso Poco Nuvoloso 22 10 46 1020 10 E/NE 18.5
Oggi h: 08:30 sereno Sereno 21 11 52 1020 10 N 1.8
Oggi h: 08:00 sereno Sereno 21 10 49 1020 10 N 7.4
Oggi h: 07:30 sereno Sereno 19 13 68 1019 10 N 3.7
Oggi h: 07:00 sereno Sereno 20 11 56 1019 10 O 9.3
Oggi h: 06:30 sereno Sereno 20 12 59 1019 10 N 5.5
Oggi h: 06:00 sereno Sereno 19 12 63 1019 10 N 5.5
Oggi h: 05:30 sereno Sereno 20 12 59 1019 10 O/SO 7.4
Oggi h: 05:00 sereno Sereno 21 13 60 1018 10 O 9.3
Oggi h: 04:30 sereno Sereno 22 12 53 1018 10 N 7.4
Oggi h: 04:00 sereno Sereno 23 12 49 1018 10 O/NO 11.1
Oggi h: 03:30 sereno Sereno 23 12 49 1018 10 N/NE 16.7
Oggi h: 03:00 sereno Sereno 23 13 53 1018 10 N 18.5
Oggi h: 02:30 sereno Sereno 23 13 53 1018 10 N/NE 16.7
Oggi h: 02:00 sereno Sereno 24 13 50 1018 10 N 14.8
Oggi h: 01:30 sereno Sereno 23 13 53 1017 10 N 7.4
Oggi h: 01:00 sereno Sereno 24 13 50 1017 10 N 9.3
Oggi h: 00:30 sereno Sereno 24 14 53 1018 10 N 5.5
Oggi h: 00:00 sereno Sereno 24 14 53 1017 10 N 11.1
Ieri h: 23:30 sereno Sereno 25 14 50 1017 10 NE 16.7
Ieri h: 23:00 sereno Sereno 25 14 50 1016 10 NE 27.8
Ieri h: 22:30 poco_nuvoloso Poco Nuvoloso 25 14 50 1016 10 NE 48.1
Ieri h: 22:00 poco_nuvoloso Poco Nuvoloso 25 15 53 1015 10 NE 40.7
Ieri h: 21:30 poco_nuvoloso Poco Nuvoloso 25 15 53 1016 10 NE 46.3
Ieri h: 21:00 poco_nuvoloso Poco Nuvoloso 25 15 53 1016 10 NE 44.4
Ieri h: 20:30 poco_nuvoloso Poco Nuvoloso 25 15 53 1015 10 NE 46.3
Ieri h: 20:00 poco_nuvoloso Poco Nuvoloso 25 15 53 1015 10 NE 42.6
Ieri h: 19:30 poco_nuvoloso Poco Nuvoloso 26 15 50 1014 10 NE 40.7
Ieri h: 19:00 poco_nuvoloso Poco Nuvoloso 26 14 47 1014 10 NE 40.7
Ieri h: 18:30 poco_nuvoloso Poco Nuvoloso 26 14 47 1014 10 NE 37
Ieri h: 18:00 poco_nuvoloso Poco Nuvoloso 27 15 47 1014 10 N 33.3
Ieri h: 17:30 poco_nuvoloso Poco Nuvoloso 27 15 47 1014 10 NE 38.8
Ieri h: 17:00 poco_nuvoloso Poco Nuvoloso 27 14 44 1014 10 NE 35.2